sensor_id;sensor_type;location;lat;lon;timestamp;P1;durP1;ratioP1;P2;durP2;ratioP2
41532;SDS011;27262;-35.248;149.138;2023-01-23T00:02:03;3.97;;;1.05;;
41532;SDS011;27262;-35.248;149.138;2023-01-23T00:04:33;4.53;;;1.10;;
41532;SDS011;27262;-35.248;149.138;2023-01-23T00:07:04;5.68;;;1.30;;
41532;SDS011;27262;-35.248;149.138;2023-01-23T00:09:34;3.50;;;1.13;;
41532;SDS011;27262;-35.248;149.138;2023-01-23T00:12:04;3.47;;;1.10;;
41532;SDS011;27262;-35.248;149.138;2023-01-23T00:14:35;4.97;;;1.52;;
41532;SDS011;27262;-35.248;149.138;2023-01-23T00:17:05;3.28;;;1.00;;
41532;SDS011;27262;-35.248;149.138;2023-01-23T00:19:35;4.85;;;1.00;;
41532;SDS011;27262;-35.248;149.138;2023-01-23T00:22:05;6.32;;;1.02;;
41532;SDS011;27262;-35.248;149.138;2023-01-23T00:24:37;3.78;;;1.10;;
41532;SDS011;27262;-35.248;149.138;2023-01-23T00:27:07;2.00;;;0.75;;
41532;SDS011;27262;-35.248;149.138;2023-01-23T00:29:38;9.25;;;0.82;;
41532;SDS011;27262;-35.248;149.138;2023-01-23T00:32:08;2.65;;;0.90;;
41532;SDS011;27262;-35.248;149.138;2023-01-23T00:34:38;8.38;;;1.17;;
41532;SDS011;27262;-35.248;149.138;2023-01-23T00:37:08;7.72;;;0.93;;
41532;SDS011;27262;-35.248;149.138;2023-01-23T00:39:39;3.13;;;0.93;;
41532;SDS011;27262;-35.248;149.138;2023-01-23T00:42:09;2.83;;;0.70;;
41532;SDS011;27262;-35.248;149.138;2023-01-23T00:44:39;2.30;;;0.98;;
41532;SDS011;27262;-35.248;149.138;2023-01-23T00:47:10;3.05;;;0.80;;
41532;SDS011;27262;-35.248;149.138;2023-01-23T00:49:40;3.88;;;0.90;;
41532;SDS011;27262;-35.248;149.138;2023-01-23T00:52:11;2.85;;;0.68;;
41532;SDS011;27262;-35.248;149.138;2023-01-23T00:54:41;6.53;;;1.23;;
41532;SDS011;27262;-35.248;149.138;2023-01-23T00:57:12;2.97;;;0.75;;
41532;SDS011;27262;-35.248;149.138;2023-01-23T00:59:44;4.60;;;0.98;;
41532;SDS011;27262;-35.248;149.138;2023-01-23T01:02:14;2.78;;;0.70;;
41532;SDS011;27262;-35.248;149.138;2023-01-23T01:04:45;3.05;;;0.77;;
41532;SDS011;27262;-35.248;149.138;2023-01-23T01:07:15;1.80;;;0.57;;
41532;SDS011;27262;-35.248;149.138;2023-01-23T01:09:45;4.75;;;1.13;;
41532;SDS011;27262;-35.248;149.138;2023-01-23T01:12:16;7.03;;;1.10;;
41532;SDS011;27262;-35.248;149.138;2023-01-23T01:14:46;3.45;;;0.65;;
41532;SDS011;27262;-35.248;149.138;2023-01-23T01:17:17;3.80;;;0.70;;
41532;SDS011;27262;-35.248;149.138;2023-01-23T01:19:47;5.25;;;0.77;;
41532;SDS011;27262;-35.248;149.138;2023-01-23T01:22:18;7.68;;;0.98;;
41532;SDS011;27262;-35.248;149.138;2023-01-23T01:24:48;4.90;;;0.80;;
41532;SDS011;27262;-35.248;149.138;2023-01-23T01:27:19;3.28;;;0.73;;
41532;SDS011;27262;-35.248;149.138;2023-01-23T01:29:49;6.10;;;0.65;;
41532;SDS011;27262;-35.248;149.138;2023-01-23T01:32:20;2.35;;;0.60;;
41532;SDS011;27262;-35.248;149.138;2023-01-23T01:34:50;4.55;;;0.80;;
41532;SDS011;27262;-35.248;149.138;2023-01-23T01:37:21;2.38;;;0.95;;
41532;SDS011;27262;-35.248;149.138;2023-01-23T01:39:52;3.67;;;1.00;;
41532;SDS011;27262;-35.248;149.138;2023-01-23T01:42:22;4.82;;;0.93;;
41532;SDS011;27262;-35.248;149.138;2023-01-23T01:44:56;3.47;;;1.17;;
41532;SDS011;27262;-35.248;149.138;2023-01-23T01:47:28;3.10;;;1.13;;
41532;SDS011;27262;-35.248;149.138;2023-01-23T01:49:59;3.95;;;0.70;;
41532;SDS011;27262;-35.248;149.138;2023-01-23T01:52:32;3.72;;;0.73;;
41532;SDS011;27262;-35.248;149.138;2023-01-23T01:55:03;2.10;;;1.00;;
41532;SDS011;27262;-35.248;149.138;2023-01-23T01:57:35;2.20;;;1.00;;
41532;SDS011;27262;-35.248;149.138;2023-01-23T02:00:14;0.65;;;0.60;;
41532;SDS011;27262;-35.248;149.138;2023-01-23T02:02:48;2.33;;;0.70;;
41532;SDS011;27262;-35.248;149.138;2023-01-23T02:05:26;2.45;;;0.73;;
41532;SDS011;27262;-35.248;149.138;2023-01-23T02:08:05;2.80;;;1.05;;
41532;SDS011;27262;-35.248;149.138;2023-01-23T02:10:42;4.63;;;1.08;;
41532;SDS011;27262;-35.248;149.138;2023-01-23T02:13:20;2.53;;;0.88;;
41532;SDS011;27262;-35.248;149.138;2023-01-23T02:15:57;4.22;;;0.73;;
41532;SDS011;27262;-35.248;149.138;2023-01-23T02:18:28;3.63;;;0.70;;
41532;SDS011;27262;-35.248;149.138;2023-01-23T02:21:03;3.83;;;1.15;;
41532;SDS011;27262;-35.248;149.138;2023-01-23T02:26:13;5.35;;;0.90;;
41532;SDS011;27262;-35.248;149.138;2023-01-23T02:28:47;2.50;;;0.60;;
41532;SDS011;27262;-35.248;149.138;2023-01-23T02:31:21;3.25;;;0.70;;
41532;SDS011;27262;-35.248;149.138;2023-01-23T02:33:53;7.10;;;1.02;;
41532;SDS011;27262;-35.248;149.138;2023-01-23T02:36:26;3.92;;;0.90;;
41532;SDS011;27262;-35.248;149.138;2023-01-23T02:41:38;3.22;;;0.80;;
41532;SDS011;27262;-35.248;149.138;2023-01-23T02:46:47;3.00;;;0.60;;
41532;SDS011;27262;-35.248;149.138;2023-01-23T02:49:17;1.40;;;0.68;;
41532;SDS011;27262;-35.248;149.138;2023-01-23T02:51:50;3.85;;;0.50;;
41532;SDS011;27262;-35.248;149.138;2023-01-23T02:54:22;1.70;;;0.77;;
41532;SDS011;27262;-35.248;149.138;2023-01-23T02:56:53;3.67;;;0.68;;
41532;SDS011;27262;-35.248;149.138;2023-01-23T02:59:24;3.00;;;0.70;;
41532;SDS011;27262;-35.248;149.138;2023-01-23T03:02:13;4.18;;;0.68;;
41532;SDS011;27262;-35.248;149.138;2023-01-23T03:04:43;4.43;;;0.80;;
41532;SDS011;27262;-35.248;149.138;2023-01-23T03:07:14;2.65;;;0.70;;
41532;SDS011;27262;-35.248;149.138;2023-01-23T03:09:44;1.63;;;0.77;;
41532;SDS011;27262;-35.248;149.138;2023-01-23T03:12:16;1.08;;;0.60;;
41532;SDS011;27262;-35.248;149.138;2023-01-23T03:14:46;3.10;;;1.00;;
41532;SDS011;27262;-35.248;149.138;2023-01-23T03:17:21;1.15;;;0.70;;
41532;SDS011;27262;-35.248;149.138;2023-01-23T03:19:52;1.50;;;0.60;;
41532;SDS011;27262;-35.248;149.138;2023-01-23T03:22:25;2.00;;;0.50;;
41532;SDS011;27262;-35.248;149.138;2023-01-23T03:24:55;2.78;;;0.70;;
41532;SDS011;27262;-35.248;149.138;2023-01-23T03:27:26;1.90;;;0.60;;
41532;SDS011;27262;-35.248;149.138;2023-01-23T03:29:57;2.13;;;1.00;;
41532;SDS011;27262;-35.248;149.138;2023-01-23T03:32:44;2.30;;;0.50;;
41532;SDS011;27262;-35.248;149.138;2023-01-23T03:35:15;1.83;;;0.70;;
41532;SDS011;27262;-35.248;149.138;2023-01-23T03:37:47;2.83;;;0.70;;
41532;SDS011;27262;-35.248;149.138;2023-01-23T03:40:19;2.15;;;0.55;;
41532;SDS011;27262;-35.248;149.138;2023-01-23T03:43:09;1.27;;;0.50;;
41532;SDS011;27262;-35.248;149.138;2023-01-23T03:45:39;2.33;;;0.70;;
41532;SDS011;27262;-35.248;149.138;2023-01-23T03:48:10;0.60;;;0.40;;
41532;SDS011;27262;-35.248;149.138;2023-01-23T03:50:40;2.17;;;0.60;;
41532;SDS011;27262;-35.248;149.138;2023-01-23T03:53:11;2.22;;;0.50;;
41532;SDS011;27262;-35.248;149.138;2023-01-23T03:55:43;1.38;;;0.55;;
41532;SDS011;27262;-35.248;149.138;2023-01-23T03:58:14;4.25;;;0.68;;
41532;SDS011;27262;-35.248;149.138;2023-01-23T04:00:44;2.50;;;0.50;;
41532;SDS011;27262;-35.248;149.138;2023-01-23T04:03:15;2.55;;;0.70;;
41532;SDS011;27262;-35.248;149.138;2023-01-23T04:05:45;2.08;;;0.55;;
41532;SDS011;27262;-35.248;149.138;2023-01-23T04:08:15;2.10;;;0.45;;
41532;SDS011;27262;-35.248;149.138;2023-01-23T04:10:50;1.00;;;0.35;;
41532;SDS011;27262;-35.248;149.138;2023-01-23T04:13:28;3.03;;;0.45;;
41532;SDS011;27262;-35.248;149.138;2023-01-23T04:15:59;1.50;;;0.60;;
41532;SDS011;27262;-35.248;149.138;2023-01-23T04:18:31;3.40;;;0.50;;
41532;SDS011;27262;-35.248;149.138;2023-01-23T04:21:02;2.88;;;0.55;;
41532;SDS011;27262;-35.248;149.138;2023-01-23T04:23:32;1.10;;;0.47;;
41532;SDS011;27262;-35.248;149.138;2023-01-23T04:26:03;12.00;;;1.15;;
41532;SDS011;27262;-35.248;149.138;2023-01-23T04:28:34;2.63;;;0.47;;
41532;SDS011;27262;-35.248;149.138;2023-01-23T04:31:04;0.65;;;0.38;;
41532;SDS011;27262;-35.248;149.138;2023-01-23T04:33:37;7.15;;;0.70;;
41532;SDS011;27262;-35.248;149.138;2023-01-23T04:36:07;1.80;;;0.65;;
41532;SDS011;27262;-35.248;149.138;2023-01-23T04:38:38;3.03;;;0.60;;
41532;SDS011;27262;-35.248;149.138;2023-01-23T04:41:09;1.65;;;0.45;;
41532;SDS011;27262;-35.248;149.138;2023-01-23T04:43:47;2.22;;;0.63;;
41532;SDS011;27262;-35.248;149.138;2023-01-23T04:46:18;0.70;;;0.30;;
41532;SDS011;27262;-35.248;149.138;2023-01-23T04:48:48;5.18;;;0.70;;
41532;SDS011;27262;-35.248;149.138;2023-01-23T04:51:18;1.55;;;0.43;;
41532;SDS011;27262;-35.248;149.138;2023-01-23T04:53:50;1.13;;;0.40;;
41532;SDS011;27262;-35.248;149.138;2023-01-23T04:56:20;3.17;;;0.60;;
41532;SDS011;27262;-35.248;149.138;2023-01-23T04:58:50;2.03;;;0.57;;
41532;SDS011;27262;-35.248;149.138;2023-01-23T05:01:21;1.65;;;0.60;;
41532;SDS011;27262;-35.248;149.138;2023-01-23T05:03:52;2.63;;;0.52;;
41532;SDS011;27262;-35.248;149.138;2023-01-23T05:06:23;2.42;;;0.60;;
41532;SDS011;27262;-35.248;149.138;2023-01-23T05:08:53;0.95;;;0.50;;
41532;SDS011;27262;-35.248;149.138;2023-01-23T05:11:23;2.28;;;0.57;;
41532;SDS011;27262;-35.248;149.138;2023-01-23T05:13:54;2.63;;;0.60;;
41532;SDS011;27262;-35.248;149.138;2023-01-23T05:16:24;1.33;;;0.35;;
41532;SDS011;27262;-35.248;149.138;2023-01-23T05:18:55;2.00;;;0.50;;
41532;SDS011;27262;-35.248;149.138;2023-01-23T05:21:25;3.47;;;0.50;;
41532;SDS011;27262;-35.248;149.138;2023-01-23T05:23:55;0.75;;;0.60;;
41532;SDS011;27262;-35.248;149.138;2023-01-23T05:26:26;1.85;;;0.47;;
41532;SDS011;27262;-35.248;149.138;2023-01-23T05:28:56;2.05;;;0.40;;
41532;SDS011;27262;-35.248;149.138;2023-01-23T05:31:27;1.65;;;0.50;;
41532;SDS011;27262;-35.248;149.138;2023-01-23T05:33:57;1.15;;;0.45;;
41532;SDS011;27262;-35.248;149.138;2023-01-23T05:36:28;2.53;;;0.40;;
41532;SDS011;27262;-35.248;149.138;2023-01-23T05:38:58;2.08;;;0.73;;
41532;SDS011;27262;-35.248;149.138;2023-01-23T05:41:28;3.20;;;0.60;;
41532;SDS011;27262;-35.248;149.138;2023-01-23T05:43:58;2.28;;;0.60;;
41532;SDS011;27262;-35.248;149.138;2023-01-23T05:46:29;0.40;;;0.20;;
41532;SDS011;27262;-35.248;149.138;2023-01-23T05:48:59;0.50;;;0.43;;
41532;SDS011;27262;-35.248;149.138;2023-01-23T05:51:29;1.33;;;0.30;;
41532;SDS011;27262;-35.248;149.138;2023-01-23T05:54:01;2.38;;;0.43;;
41532;SDS011;27262;-35.248;149.138;2023-01-23T05:56:32;1.48;;;0.40;;
41532;SDS011;27262;-35.248;149.138;2023-01-23T05:59:02;2.63;;;0.55;;
41532;SDS011;27262;-35.248;149.138;2023-01-23T06:01:33;1.20;;;0.50;;
41532;SDS011;27262;-35.248;149.138;2023-01-23T06:04:03;2.95;;;0.50;;
41532;SDS011;27262;-35.248;149.138;2023-01-23T06:06:34;0.68;;;0.30;;
41532;SDS011;27262;-35.248;149.138;2023-01-23T06:09:04;1.90;;;0.30;;
41532;SDS011;27262;-35.248;149.138;2023-01-23T06:11:34;3.00;;;0.52;;
41532;SDS011;27262;-35.248;149.138;2023-01-23T06:14:04;1.98;;;0.40;;
41532;SDS011;27262;-35.248;149.138;2023-01-23T06:16:35;4.45;;;0.50;;
41532;SDS011;27262;-35.248;149.138;2023-01-23T06:19:05;1.73;;;0.35;;
41532;SDS011;27262;-35.248;149.138;2023-01-23T06:21:37;0.95;;;0.22;;
41532;SDS011;27262;-35.248;149.138;2023-01-23T06:24:08;4.28;;;0.55;;
41532;SDS011;27262;-35.248;149.138;2023-01-23T06:26:38;1.90;;;0.20;;
41532;SDS011;27262;-35.248;149.138;2023-01-23T06:29:09;1.35;;;0.30;;
41532;SDS011;27262;-35.248;149.138;2023-01-23T06:31:39;1.15;;;0.50;;
41532;SDS011;27262;-35.248;149.138;2023-01-23T06:34:09;1.15;;;0.30;;
41532;SDS011;27262;-35.248;149.138;2023-01-23T06:36:39;1.88;;;0.45;;
41532;SDS011;27262;-35.248;149.138;2023-01-23T06:39:11;7.50;;;0.68;;
41532;SDS011;27262;-35.248;149.138;2023-01-23T06:41:42;2.40;;;0.82;;
41532;SDS011;27262;-35.248;149.138;2023-01-23T06:44:12;2.80;;;0.70;;
41532;SDS011;27262;-35.248;149.138;2023-01-23T06:46:43;3.50;;;0.40;;
41532;SDS011;27262;-35.248;149.138;2023-01-23T06:49:13;2.78;;;0.50;;
41532;SDS011;27262;-35.248;149.138;2023-01-23T06:51:43;2.58;;;0.30;;
41532;SDS011;27262;-35.248;149.138;2023-01-23T06:54:14;1.65;;;0.50;;
41532;SDS011;27262;-35.248;149.138;2023-01-23T06:56:44;2.85;;;0.40;;
41532;SDS011;27262;-35.248;149.138;2023-01-23T06:59:16;0.93;;;0.35;;
41532;SDS011;27262;-35.248;149.138;2023-01-23T07:01:47;1.13;;;0.32;;
41532;SDS011;27262;-35.248;149.138;2023-01-23T07:04:17;1.55;;;0.45;;
41532;SDS011;27262;-35.248;149.138;2023-01-23T07:06:47;1.33;;;0.40;;
41532;SDS011;27262;-35.248;149.138;2023-01-23T07:09:18;3.25;;;0.57;;
41532;SDS011;27262;-35.248;149.138;2023-01-23T07:11:48;1.17;;;0.50;;
41532;SDS011;27262;-35.248;149.138;2023-01-23T07:14:19;2.17;;;0.60;;
41532;SDS011;27262;-35.248;149.138;2023-01-23T07:16:49;1.10;;;0.40;;
41532;SDS011;27262;-35.248;149.138;2023-01-23T07:19:19;2.00;;;0.68;;
41532;SDS011;27262;-35.248;149.138;2023-01-23T07:21:50;0.90;;;0.20;;
41532;SDS011;27262;-35.248;149.138;2023-01-23T07:24:20;1.65;;;0.30;;
41532;SDS011;27262;-35.248;149.138;2023-01-23T07:26:50;3.45;;;0.52;;
41532;SDS011;27262;-35.248;149.138;2023-01-23T07:29:21;1.02;;;0.30;;
41532;SDS011;27262;-35.248;149.138;2023-01-23T07:31:51;0.57;;;0.30;;
41532;SDS011;27262;-35.248;149.138;2023-01-23T07:34:24;2.55;;;0.40;;
41532;SDS011;27262;-35.248;149.138;2023-01-23T07:36:55;4.78;;;0.35;;
41532;SDS011;27262;-35.248;149.138;2023-01-23T07:39:25;1.15;;;0.40;;
41532;SDS011;27262;-35.248;149.138;2023-01-23T07:41:55;0.75;;;0.35;;
41532;SDS011;27262;-35.248;149.138;2023-01-23T07:44:26;2.45;;;0.40;;
41532;SDS011;27262;-35.248;149.138;2023-01-23T07:46:56;1.38;;;0.30;;
41532;SDS011;27262;-35.248;149.138;2023-01-23T07:49:26;3.05;;;0.40;;
41532;SDS011;27262;-35.248;149.138;2023-01-23T07:51:57;0.60;;;0.40;;
41532;SDS011;27262;-35.248;149.138;2023-01-23T07:54:27;2.92;;;0.20;;
41532;SDS011;27262;-35.248;149.138;2023-01-23T07:56:57;2.50;;;0.43;;
41532;SDS011;27262;-35.248;149.138;2023-01-23T07:59:28;1.67;;;0.30;;
41532;SDS011;27262;-35.248;149.138;2023-01-23T08:01:58;1.95;;;0.43;;
41532;SDS011;27262;-35.248;149.138;2023-01-23T08:04:29;2.10;;;0.22;;
41532;SDS011;27262;-35.248;149.138;2023-01-23T08:06:59;0.50;;;0.20;;
41532;SDS011;27262;-35.248;149.138;2023-01-23T08:09:29;2.47;;;0.45;;
41532;SDS011;27262;-35.248;149.138;2023-01-23T08:12:00;2.13;;;0.30;;
41532;SDS011;27262;-35.248;149.138;2023-01-23T08:14:30;1.60;;;0.28;;
41532;SDS011;27262;-35.248;149.138;2023-01-23T08:17:00;1.20;;;0.32;;
41532;SDS011;27262;-35.248;149.138;2023-01-23T08:19:30;0.45;;;0.32;;
41532;SDS011;27262;-35.248;149.138;2023-01-23T08:22:01;1.63;;;0.45;;
41532;SDS011;27262;-35.248;149.138;2023-01-23T08:24:31;4.53;;;0.43;;
41532;SDS011;27262;-35.248;149.138;2023-01-23T08:27:01;1.50;;;0.30;;
41532;SDS011;27262;-35.248;149.138;2023-01-23T08:29:32;0.98;;;0.40;;
41532;SDS011;27262;-35.248;149.138;2023-01-23T08:32:02;2.53;;;1.20;;
41532;SDS011;27262;-35.248;149.138;2023-01-23T08:34:32;1.10;;;0.50;;
41532;SDS011;27262;-35.248;149.138;2023-01-23T08:37:03;1.33;;;0.50;;
41532;SDS011;27262;-35.248;149.138;2023-01-23T08:39:33;0.30;;;0.30;;
41532;SDS011;27262;-35.248;149.138;2023-01-23T08:42:03;1.40;;;0.40;;
41532;SDS011;27262;-35.248;149.138;2023-01-23T08:44:33;1.02;;;0.40;;
41532;SDS011;27262;-35.248;149.138;2023-01-23T08:47:04;0.68;;;0.40;;
41532;SDS011;27262;-35.248;149.138;2023-01-23T08:49:34;1.52;;;0.50;;
41532;SDS011;27262;-35.248;149.138;2023-01-23T08:52:04;1.08;;;0.55;;
41532;SDS011;27262;-35.248;149.138;2023-01-23T08:54:35;1.50;;;0.50;;
41532;SDS011;27262;-35.248;149.138;2023-01-23T08:57:06;2.95;;;0.52;;
41532;SDS011;27262;-35.248;149.138;2023-01-23T08:59:36;1.58;;;0.68;;
41532;SDS011;27262;-35.248;149.138;2023-01-23T09:02:08;1.50;;;0.30;;
41532;SDS011;27262;-35.248;149.138;2023-01-23T09:04:40;1.60;;;0.40;;
41532;SDS011;27262;-35.248;149.138;2023-01-23T09:07:10;2.35;;;0.68;;
41532;SDS011;27262;-35.248;149.138;2023-01-23T09:09:40;1.60;;;0.50;;
41532;SDS011;27262;-35.248;149.138;2023-01-23T09:12:10;0.57;;;0.50;;
41532;SDS011;27262;-35.248;149.138;2023-01-23T09:14:41;0.70;;;0.50;;
41532;SDS011;27262;-35.248;149.138;2023-01-23T09:17:11;0.75;;;0.50;;
41532;SDS011;27262;-35.248;149.138;2023-01-23T09:19:42;1.05;;;0.43;;
41532;SDS011;27262;-35.248;149.138;2023-01-23T09:22:12;1.02;;;0.60;;
41532;SDS011;27262;-35.248;149.138;2023-01-23T09:24:42;0.60;;;0.50;;
41532;SDS011;27262;-35.248;149.138;2023-01-23T09:27:12;0.52;;;0.30;;
41532;SDS011;27262;-35.248;149.138;2023-01-23T09:29:43;1.25;;;0.40;;
41532;SDS011;27262;-35.248;149.138;2023-01-23T09:32:13;1.05;;;0.40;;
41532;SDS011;27262;-35.248;149.138;2023-01-23T09:34:43;4.30;;;0.30;;
41532;SDS011;27262;-35.248;149.138;2023-01-23T09:37:16;1.20;;;0.45;;
41532;SDS011;27262;-35.248;149.138;2023-01-23T09:39:47;1.48;;;0.43;;
41532;SDS011;27262;-35.248;149.138;2023-01-23T09:42:21;0.50;;;0.40;;
41532;SDS011;27262;-35.248;149.138;2023-01-23T09:45:00;0.65;;;0.30;;
41532;SDS011;27262;-35.248;149.138;2023-01-23T09:47:42;0.80;;;0.30;;
41532;SDS011;27262;-35.248;149.138;2023-01-23T09:50:35;1.33;;;0.30;;
41532;SDS011;27262;-35.248;149.138;2023-01-23T09:53:13;0.50;;;0.47;;
41532;SDS011;27262;-35.248;149.138;2023-01-23T09:58:40;0.80;;;0.30;;
41532;SDS011;27262;-35.248;149.138;2023-01-23T10:01:21;1.10;;;0.43;;
41532;SDS011;27262;-35.248;149.138;2023-01-23T10:03:54;2.28;;;0.40;;
41532;SDS011;27262;-35.248;149.138;2023-01-23T10:06:27;0.77;;;0.30;;
41532;SDS011;27262;-35.248;149.138;2023-01-23T10:11:58;1.25;;;0.30;;
41532;SDS011;27262;-35.248;149.138;2023-01-23T10:14:53;0.60;;;0.40;;
41532;SDS011;27262;-35.248;149.138;2023-01-23T10:20:50;0.95;;;0.35;;
41532;SDS011;27262;-35.248;149.138;2023-01-23T10:26:31;0.70;;;0.38;;
41532;SDS011;27262;-35.248;149.138;2023-01-23T10:29:13;0.90;;;0.50;;
41532;SDS011;27262;-35.248;149.138;2023-01-23T10:32:14;1.67;;;0.40;;
41532;SDS011;27262;-35.248;149.138;2023-01-23T10:35:11;0.88;;;0.43;;
41532;SDS011;27262;-35.248;149.138;2023-01-23T10:40:49;0.45;;;0.30;;
41532;SDS011;27262;-35.248;149.138;2023-01-23T10:43:38;0.80;;;0.40;;
41532;SDS011;27262;-35.248;149.138;2023-01-23T10:46:14;2.03;;;0.50;;
41532;SDS011;27262;-35.248;149.138;2023-01-23T10:48:47;0.52;;;0.40;;
41532;SDS011;27262;-35.248;149.138;2023-01-23T10:54:10;2.08;;;0.30;;
41532;SDS011;27262;-35.248;149.138;2023-01-23T10:57:15;0.70;;;0.50;;
41532;SDS011;27262;-35.248;149.138;2023-01-23T11:02:46;1.00;;;0.30;;
41532;SDS011;27262;-35.248;149.138;2023-01-23T11:08:38;1.08;;;0.40;;
41532;SDS011;27262;-35.248;149.138;2023-01-23T11:14:08;0.77;;;0.40;;
41532;SDS011;27262;-35.248;149.138;2023-01-23T11:16:45;2.15;;;0.50;;
41532;SDS011;27262;-35.248;149.138;2023-01-23T11:19:27;1.23;;;0.47;;
41532;SDS011;27262;-35.248;149.138;2023-01-23T11:22:01;1.25;;;0.40;;
41532;SDS011;27262;-35.248;149.138;2023-01-23T11:24:34;1.15;;;0.50;;
41532;SDS011;27262;-35.248;149.138;2023-01-23T11:32:22;0.50;;;0.40;;
41532;SDS011;27262;-35.248;149.138;2023-01-23T11:34:55;1.58;;;0.57;;
41532;SDS011;27262;-35.248;149.138;2023-01-23T11:37:43;1.10;;;0.50;;
41532;SDS011;27262;-35.248;149.138;2023-01-23T11:40:17;1.38;;;0.40;;
41532;SDS011;27262;-35.248;149.138;2023-01-23T11:42:48;1.30;;;0.50;;
41532;SDS011;27262;-35.248;149.138;2023-01-23T11:48:18;1.30;;;0.40;;
41532;SDS011;27262;-35.248;149.138;2023-01-23T11:53:33;1.38;;;0.40;;
41532;SDS011;27262;-35.248;149.138;2023-01-23T11:56:16;0.52;;;0.43;;
41532;SDS011;27262;-35.248;149.138;2023-01-23T12:09:46;0.60;;;0.38;;
41532;SDS011;27262;-35.248;149.138;2023-01-23T12:20:34;1.17;;;0.40;;
41532;SDS011;27262;-35.248;149.138;2023-01-23T12:23:34;0.88;;;0.40;;
41532;SDS011;27262;-35.248;149.138;2023-01-23T12:26:14;0.60;;;0.45;;
41532;SDS011;27262;-35.248;149.138;2023-01-23T12:38:10;1.88;;;0.38;;
41532;SDS011;27262;-35.248;149.138;2023-01-23T12:47:15;1.10;;;0.40;;
41532;SDS011;27262;-35.248;149.138;2023-01-23T12:50:14;2.22;;;0.60;;
41532;SDS011;27262;-35.248;149.138;2023-01-23T12:53:00;0.90;;;0.32;;
41532;SDS011;27262;-35.248;149.138;2023-01-23T12:58:41;0.40;;;0.30;;
41532;SDS011;27262;-35.248;149.138;2023-01-23T13:01:59;1.27;;;0.40;;
41532;SDS011;27262;-35.248;149.138;2023-01-23T13:08:14;1.00;;;0.32;;
41532;SDS011;27262;-35.248;149.138;2023-01-23T13:13:48;0.77;;;0.40;;
41532;SDS011;27262;-35.248;149.138;2023-01-23T13:16:18;0.82;;;0.50;;
41532;SDS011;27262;-35.248;149.138;2023-01-23T13:33:18;0.57;;;0.30;;
41532;SDS011;27262;-35.248;149.138;2023-01-23T13:41:48;0.93;;;0.43;;
41532;SDS011;27262;-35.248;149.138;2023-01-23T13:44:37;0.90;;;0.30;;
41532;SDS011;27262;-35.248;149.138;2023-01-23T13:51:09;0.82;;;0.20;;
41532;SDS011;27262;-35.248;149.138;2023-01-23T13:54:00;1.20;;;0.32;;
41532;SDS011;27262;-35.248;149.138;2023-01-23T13:57:01;0.88;;;0.40;;
41532;SDS011;27262;-35.248;149.138;2023-01-23T13:59:47;1.30;;;0.35;;
41532;SDS011;27262;-35.248;149.138;2023-01-23T14:02:35;0.40;;;0.30;;
41532;SDS011;27262;-35.248;149.138;2023-01-23T14:05:39;1.02;;;0.40;;
41532;SDS011;27262;-35.248;149.138;2023-01-23T14:08:26;4.13;;;0.28;;
41532;SDS011;27262;-35.248;149.138;2023-01-23T14:11:12;0.68;;;0.22;;
41532;SDS011;27262;-35.248;149.138;2023-01-23T14:13:59;0.73;;;0.30;;
41532;SDS011;27262;-35.248;149.138;2023-01-23T14:17:01;1.70;;;0.40;;
41532;SDS011;27262;-35.248;149.138;2023-01-23T14:19:59;0.85;;;0.40;;
41532;SDS011;27262;-35.248;149.138;2023-01-23T14:22:45;0.75;;;0.30;;
41532;SDS011;27262;-35.248;149.138;2023-01-23T14:25:28;0.95;;;0.30;;
41532;SDS011;27262;-35.248;149.138;2023-01-23T14:28:00;0.90;;;0.35;;
41532;SDS011;27262;-35.248;149.138;2023-01-23T14:30:33;1.33;;;0.40;;
41532;SDS011;27262;-35.248;149.138;2023-01-23T14:33:14;0.38;;;0.30;;
41532;SDS011;27262;-35.248;149.138;2023-01-23T14:35:46;1.70;;;0.50;;
41532;SDS011;27262;-35.248;149.138;2023-01-23T14:38:30;1.17;;;0.30;;
41532;SDS011;27262;-35.248;149.138;2023-01-23T14:41:05;0.40;;;0.25;;
41532;SDS011;27262;-35.248;149.138;2023-01-23T14:43:36;1.08;;;0.40;;
41532;SDS011;27262;-35.248;149.138;2023-01-23T14:48:56;0.50;;;0.35;;
41532;SDS011;27262;-35.248;149.138;2023-01-23T14:51:27;0.85;;;0.40;;
41532;SDS011;27262;-35.248;149.138;2023-01-23T14:54:01;0.63;;;0.30;;
41532;SDS011;27262;-35.248;149.138;2023-01-23T14:56:38;0.82;;;0.28;;
41532;SDS011;27262;-35.248;149.138;2023-01-23T14:59:41;0.77;;;0.30;;
41532;SDS011;27262;-35.248;149.138;2023-01-23T15:07:52;1.13;;;0.30;;
41532;SDS011;27262;-35.248;149.138;2023-01-23T15:13:03;0.65;;;0.30;;
41532;SDS011;27262;-35.248;149.138;2023-01-23T15:15:43;1.38;;;0.40;;
41532;SDS011;27262;-35.248;149.138;2023-01-23T15:18:18;0.80;;;0.40;;
41532;SDS011;27262;-35.248;149.138;2023-01-23T15:21:02;0.52;;;0.30;;
41532;SDS011;27262;-35.248;149.138;2023-01-23T15:23:38;1.55;;;0.30;;
41532;SDS011;27262;-35.248;149.138;2023-01-23T15:26:34;0.63;;;0.30;;
41532;SDS011;27262;-35.248;149.138;2023-01-23T15:36:53;0.52;;;0.30;;
41532;SDS011;27262;-35.248;149.138;2023-01-23T15:42:28;0.60;;;0.40;;
41532;SDS011;27262;-35.248;149.138;2023-01-23T15:45:01;0.32;;;0.30;;
41532;SDS011;27262;-35.248;149.138;2023-01-23T15:47:34;0.50;;;0.30;;
41532;SDS011;27262;-35.248;149.138;2023-01-23T15:50:04;0.30;;;0.30;;
41532;SDS011;27262;-35.248;149.138;2023-01-23T15:52:48;0.73;;;0.43;;
41532;SDS011;27262;-35.248;149.138;2023-01-23T15:55:21;0.52;;;0.30;;
41532;SDS011;27262;-35.248;149.138;2023-01-23T15:57:54;0.50;;;0.20;;
41532;SDS011;27262;-35.248;149.138;2023-01-23T16:00:26;0.70;;;0.40;;
41532;SDS011;27262;-35.248;149.138;2023-01-23T16:02:57;0.52;;;0.30;;
41532;SDS011;27262;-35.248;149.138;2023-01-23T16:05:29;0.22;;;0.20;;
41532;SDS011;27262;-35.248;149.138;2023-01-23T16:08:04;0.40;;;0.40;;
41532;SDS011;27262;-35.248;149.138;2023-01-23T16:10:55;0.32;;;0.30;;
41532;SDS011;27262;-35.248;149.138;2023-01-23T16:13:25;1.70;;;0.30;;
41532;SDS011;27262;-35.248;149.138;2023-01-23T16:15:56;0.60;;;0.30;;
41532;SDS011;27262;-35.248;149.138;2023-01-23T16:18:26;0.35;;;0.30;;
41532;SDS011;27262;-35.248;149.138;2023-01-23T16:20:56;0.60;;;0.30;;
41532;SDS011;27262;-35.248;149.138;2023-01-23T16:23:26;0.30;;;0.20;;
41532;SDS011;27262;-35.248;149.138;2023-01-23T16:26:22;0.40;;;0.30;;
41532;SDS011;27262;-35.248;149.138;2023-01-23T16:28:54;0.35;;;0.22;;
41532;SDS011;27262;-35.248;149.138;2023-01-23T16:31:39;0.30;;;0.30;;
41532;SDS011;27262;-35.248;149.138;2023-01-23T16:34:10;0.65;;;0.30;;
41532;SDS011;27262;-35.248;149.138;2023-01-23T16:36:40;0.30;;;0.22;;
41532;SDS011;27262;-35.248;149.138;2023-01-23T16:39:18;0.40;;;0.40;;
41532;SDS011;27262;-35.248;149.138;2023-01-23T16:41:50;0.40;;;0.40;;
41532;SDS011;27262;-35.248;149.138;2023-01-23T16:44:25;0.35;;;0.28;;
41532;SDS011;27262;-35.248;149.138;2023-01-23T16:46:56;0.40;;;0.20;;
41532;SDS011;27262;-35.248;149.138;2023-01-23T16:49:26;0.88;;;0.43;;
41532;SDS011;27262;-35.248;149.138;2023-01-23T16:52:01;0.52;;;0.40;;
41532;SDS011;27262;-35.248;149.138;2023-01-23T16:54:32;0.82;;;0.52;;
41532;SDS011;27262;-35.248;149.138;2023-01-23T16:57:03;0.30;;;0.30;;
41532;SDS011;27262;-35.248;149.138;2023-01-23T16:59:37;0.63;;;0.35;;
41532;SDS011;27262;-35.248;149.138;2023-01-23T17:02:28;0.32;;;0.30;;
41532;SDS011;27262;-35.248;149.138;2023-01-23T17:04:59;1.23;;;0.60;;